createdAt,value
2022-08-22T00:00:18.705Z,9.13
2022-08-22T00:03:07.477Z,11.27
2022-08-22T00:03:15.830Z,15.48
2022-08-22T00:03:26.007Z,11.15
2022-08-22T00:06:57.470Z,10.15
2022-08-22T00:10:11.941Z,12.32
2022-08-22T00:13:19.683Z,14.48
2022-08-22T00:16:26.611Z,10.20
2022-08-22T00:19:35.139Z,15.20
2022-08-22T00:22:35.892Z,11.57
2022-08-22T00:25:35.777Z,10.30
2022-08-22T00:28:34.537Z,13.95
2022-08-22T00:31:51.679Z,8.00
2022-08-22T00:34:43.570Z,11.82
2022-08-22T00:37:34.939Z,13.00
2022-08-22T00:40:31.364Z,12.40
2022-08-22T00:43:29.952Z,11.82
2022-08-22T00:46:33.441Z,10.52
2022-08-22T00:49:37.767Z,9.80
2022-08-22T00:53:00.449Z,9.05
2022-08-22T00:56:16.732Z,10.43
2022-08-22T00:59:24.661Z,14.98
2022-08-22T01:02:38.202Z,13.13
2022-08-22T01:06:02.599Z,8.45
2022-08-22T01:09:32.501Z,11.30
2022-08-22T01:12:26.850Z,11.75
2022-08-22T01:15:22.556Z,9.60
2022-08-22T01:18:16.666Z,11.82
2022-08-22T01:21:17.006Z,10.43
2022-08-22T01:24:24.845Z,10.57
2022-08-22T01:27:52.736Z,10.90
2022-08-22T01:31:10.248Z,9.73
2022-08-22T01:34:17.306Z,13.43
2022-08-22T01:37:45.234Z,11.95
2022-08-22T01:40:53.894Z,8.45
2022-08-22T01:44:13.855Z,10.90
2022-08-22T01:47:05.961Z,9.60
2022-08-22T01:50:00.009Z,13.27
2022-08-22T01:53:08.158Z,9.73
2022-08-22T01:56:12.182Z,10.45
2022-08-22T01:59:01.786Z,11.02
2022-08-22T02:01:49.988Z,10.40
2022-08-22T02:04:44.618Z,16.05
2022-08-22T02:07:49.299Z,6.78
2022-08-22T02:10:59.884Z,13.85
2022-08-22T02:14:03.273Z,9.00
2022-08-22T02:16:56.648Z,11.27
2022-08-22T02:19:57.282Z,13.20
2022-08-22T02:23:15.655Z,12.35
2022-08-22T02:26:03.869Z,8.73
2022-08-22T02:28:56.974Z,7.95
2022-08-22T02:32:05.239Z,13.25
2022-08-22T02:35:07.338Z,12.05
2022-08-22T02:38:09.383Z,9.65
2022-08-22T02:41:21.331Z,11.68
2022-08-22T02:44:22.052Z,12.00
2022-08-22T02:47:13.794Z,12.02
2022-08-22T02:50:15.413Z,11.57
2022-08-22T02:53:19.715Z,9.80
2022-08-22T02:56:20.320Z,11.98
2022-08-22T02:59:15.507Z,12.07
2022-08-22T03:02:27.623Z,10.25
2022-08-22T03:05:23.230Z,8.43
2022-08-22T03:08:23.902Z,10.95
2022-08-22T03:11:16.026Z,11.20
2022-08-22T03:14:27.743Z,6.90
2022-08-22T03:17:25.014Z,11.38
2022-08-22T03:20:20.351Z,10.68
2022-08-22T03:23:15.366Z,10.57
2022-08-22T03:26:33.198Z,13.18
2022-08-22T03:29:33.246Z,11.40
2022-08-22T03:32:24.844Z,10.07
2022-08-22T03:35:22.022Z,10.38
2022-08-22T03:38:30.577Z,14.02
2022-08-22T03:41:34.438Z,17.60
2022-08-22T03:44:50.505Z,10.13
2022-08-22T03:47:58.091Z,8.43
2022-08-22T03:51:14.131Z,12.45
2022-08-22T03:54:15.333Z,12.18
2022-08-22T03:57:36.970Z,12.13
2022-08-22T04:00:46.433Z,10.48
2022-08-22T04:03:44.179Z,8.95
2022-08-22T04:06:41.837Z,10.90
2022-08-22T04:10:02.492Z,12.10
2022-08-22T04:13:38.439Z,16.15
2022-08-22T04:16:26.607Z,8.60
2022-08-22T04:19:46.978Z,8.90
2022-08-22T04:22:37.996Z,12.57
2022-08-22T04:25:47.049Z,11.10
2022-08-22T04:28:39.779Z,14.65
2022-08-22T04:31:33.613Z,5.70
2022-08-22T04:34:29.553Z,14.18
2022-08-22T04:37:27.821Z,9.23
2022-08-22T04:40:30.717Z,9.70
2022-08-22T04:43:37.931Z,10.15
2022-08-22T04:46:39.390Z,13.10
2022-08-22T04:49:50.268Z,10.73
2022-08-22T04:52:50.457Z,10.30
2022-08-22T04:56:06.650Z,13.63
2022-08-22T04:59:03.772Z,13.40
2022-08-22T05:01:57.051Z,14.63
2022-08-22T05:04:47.194Z,9.00
2022-08-22T05:07:42.118Z,16.02
2022-08-22T05:10:36.443Z,11.68
2022-08-22T05:13:30.703Z,12.70
2022-08-22T05:16:21.989Z,14.18
2022-08-22T05:19:16.449Z,8.88
2022-08-22T05:22:04.034Z,11.18
2022-08-22T05:24:53.991Z,12.55
2022-08-22T05:27:44.766Z,7.80
2022-08-22T05:30:33.734Z,16.73
2022-08-22T05:33:44.682Z,11.32
2022-08-22T05:36:39.193Z,10.80
2022-08-22T05:39:28.029Z,8.52
2022-08-22T05:42:19.034Z,11.23
2022-08-22T05:45:08.531Z,13.40
2022-08-22T05:48:11.823Z,11.45
2022-08-22T05:51:09.208Z,10.02
2022-08-22T05:54:09.559Z,14.98
2022-08-22T05:57:07.793Z,12.10
2022-08-22T06:00:01.266Z,14.68
2022-08-22T06:03:20.987Z,15.82
2022-08-22T06:06:16.779Z,10.52
2022-08-22T06:09:08.464Z,10.90
2022-08-22T06:12:21.951Z,9.38
2022-08-22T06:15:20.805Z,16.15
2022-08-22T06:18:12.532Z,14.07
2022-08-22T06:21:06.486Z,8.43
2022-08-22T06:24:01.106Z,6.68
2022-08-22T06:26:51.090Z,6.13
2022-08-22T06:29:55.740Z,8.82
2022-08-22T06:32:59.002Z,11.43
2022-08-22T06:36:21.115Z,9.70
2022-08-22T06:39:06.497Z,11.02
2022-08-22T06:41:59.606Z,6.35
2022-08-22T06:45:17.131Z,8.57
2022-08-22T06:48:06.089Z,13.82
2022-08-22T06:50:57.000Z,13.70
2022-08-22T06:53:53.721Z,6.18
2022-08-22T06:56:42.401Z,9.57
2022-08-22T06:59:31.238Z,8.88
2022-08-22T07:02:22.368Z,11.05
2022-08-22T07:05:17.607Z,12.90
2022-08-22T07:08:13.640Z,8.88
2022-08-22T07:11:19.493Z,12.43
2022-08-22T07:14:08.284Z,10.68
2022-08-22T07:17:01.751Z,9.68
2022-08-22T07:20:13.357Z,10.27
2022-08-22T07:23:10.312Z,6.80
2022-08-22T07:26:25.458Z,10.23
2022-08-22T07:29:33.111Z,7.32
2022-08-22T07:32:49.981Z,7.90
2022-08-22T07:35:41.987Z,11.15
2022-08-22T07:38:43.793Z,10.38
2022-08-22T07:41:54.850Z,10.52
2022-08-22T07:45:02.346Z,9.32
2022-08-22T07:48:17.209Z,8.77
2022-08-22T07:51:14.417Z,11.77
2022-08-22T07:54:04.686Z,7.60
2022-08-22T07:57:24.179Z,9.70
2022-08-22T08:00:17.044Z,8.48
2022-08-22T08:03:06.917Z,7.32
2022-08-22T08:05:53.790Z,7.20
2022-08-22T08:08:42.766Z,7.00
2022-08-22T08:11:33.806Z,7.65
2022-08-22T08:14:22.058Z,7.43
2022-08-22T08:17:31.829Z,7.72
2022-08-22T08:20:22.052Z,7.30
2022-08-22T08:23:10.265Z,6.63
2022-08-22T08:26:17.282Z,6.03
2022-08-22T08:29:04.146Z,8.60
2022-08-22T08:31:49.734Z,6.53
2022-08-22T08:34:39.363Z,6.68
2022-08-22T08:37:50.321Z,5.82
2022-08-22T08:40:54.680Z,8.80
2022-08-22T08:43:50.015Z,8.82
2022-08-22T08:46:55.192Z,8.15
2022-08-22T08:50:03.108Z,8.43
2022-08-22T08:52:54.612Z,9.40
2022-08-22T08:55:57.571Z,6.78
2022-08-22T08:59:13.642Z,7.18
2022-08-22T09:02:33.909Z,7.28
2022-08-22T09:05:40.695Z,8.82
2022-08-22T09:09:12.981Z,6.18
2022-08-22T09:12:19.504Z,10.18
2022-08-22T09:15:14.423Z,7.35
2022-08-22T09:18:33.445Z,7.72
2022-08-22T09:21:44.781Z,9.35
2022-08-22T09:25:01.171Z,7.28
2022-08-22T09:28:13.831Z,8.68
2022-08-22T09:31:32.982Z,8.00
2022-08-22T09:34:52.450Z,7.60
2022-08-22T09:37:46.393Z,9.00
2022-08-22T09:40:48.700Z,5.97
2022-08-22T09:44:07.245Z,7.50
2022-08-22T09:47:05.632Z,6.10
2022-08-22T09:50:14.695Z,6.57
2022-08-22T09:53:36.406Z,6.53
2022-08-22T09:56:49.627Z,7.95
2022-08-22T09:59:55.673Z,4.63
2022-08-22T10:03:34.953Z,6.65
2022-08-22T10:06:35.082Z,6.60
2022-08-22T10:09:31.966Z,5.22
2022-08-22T10:12:35.145Z,6.03
2022-08-22T10:15:39.850Z,6.57
2022-08-22T10:18:35.439Z,8.88
2022-08-22T10:22:01.251Z,3.72
2022-08-22T10:25:28.546Z,4.40
2022-08-22T10:28:23.127Z,4.53
2022-08-22T10:31:23.879Z,2.58
2022-08-22T10:34:20.288Z,8.07
2022-08-22T10:37:16.413Z,5.18
2022-08-22T10:40:13.257Z,4.60
2022-08-22T10:43:03.197Z,8.23
2022-08-22T10:46:00.660Z,6.28
2022-08-22T10:48:54.293Z,6.40
2022-08-22T10:52:15.781Z,5.28
2022-08-22T10:55:26.958Z,5.40
2022-08-22T10:58:34.527Z,8.25
2022-08-22T11:01:38.349Z,4.22
2022-08-22T11:04:41.146Z,3.00
2022-08-22T11:07:58.930Z,5.07
2022-08-22T11:10:48.971Z,5.43
2022-08-22T11:14:03.022Z,5.10
2022-08-22T11:17:30.283Z,3.85
2022-08-22T11:20:47.518Z,5.03
2022-08-22T11:24:01.818Z,5.28
2022-08-22T11:27:17.767Z,6.10
2022-08-22T11:30:18.581Z,4.72
2022-08-22T11:33:16.071Z,4.75
2022-08-22T11:36:26.128Z,5.30
2022-08-22T11:39:32.561Z,4.00
2022-08-22T11:42:47.971Z,6.80
2022-08-22T11:45:51.479Z,8.75
2022-08-22T11:49:18.853Z,4.60
2022-08-22T11:52:30.819Z,4.50
2022-08-22T11:55:40.442Z,5.15
2022-08-22T11:58:53.822Z,5.80
2022-08-22T12:01:55.465Z,6.60
2022-08-22T12:04:53.051Z,5.43
2022-08-22T12:07:50.481Z,7.70
2022-08-22T12:11:15.971Z,8.30
2022-08-22T12:14:06.353Z,7.20
2022-08-22T12:17:22.798Z,7.03
2022-08-22T12:21:14.129Z,3.95
2022-08-22T12:24:11.276Z,6.00
2022-08-22T12:27:28.751Z,9.80
2022-08-22T12:30:37.548Z,10.13
2022-08-22T12:33:49.168Z,5.65
2022-08-22T12:36:51.146Z,7.25
2022-08-22T12:39:56.342Z,6.10
2022-08-22T12:42:54.623Z,7.25
2022-08-22T12:46:18.757Z,8.43
2022-08-22T12:49:44.917Z,6.45
2022-08-22T12:53:02.243Z,5.70
2022-08-22T12:56:20.403Z,6.15
2022-08-22T12:59:10.026Z,5.43
2022-08-22T13:02:01.505Z,3.83
2022-08-22T13:04:56.168Z,3.05
2022-08-22T13:07:43.950Z,3.17
2022-08-22T13:10:42.754Z,3.72
2022-08-22T13:13:38.593Z,4.22
2022-08-22T13:16:33.946Z,4.35
2022-08-22T13:19:29.199Z,4.82
2022-08-22T13:22:25.545Z,7.13
2022-08-22T13:25:30.092Z,5.03
2022-08-22T13:28:16.584Z,9.05
2022-08-22T13:31:03.422Z,3.33
2022-08-22T13:33:52.706Z,3.88
2022-08-22T13:36:52.182Z,2.75
2022-08-22T13:39:42.166Z,5.35
2022-08-22T13:42:31.326Z,4.32
2022-08-22T13:45:24.032Z,7.05
2022-08-22T13:48:14.124Z,3.33
2022-08-22T13:51:29.998Z,6.25
2022-08-22T13:54:16.617Z,3.67
2022-08-22T13:57:24.709Z,7.80
2022-08-22T14:00:57.356Z,6.55
2022-08-22T14:04:17.532Z,5.38
2022-08-22T14:07:37.296Z,8.73
2022-08-22T14:10:28.342Z,8.23
2022-08-22T14:13:39.144Z,7.57
2022-08-22T14:16:47.595Z,5.30
2022-08-22T14:19:58.604Z,9.95
2022-08-22T14:23:07.433Z,9.82
2022-08-22T14:25:52.969Z,6.45
2022-08-22T14:28:38.809Z,5.03
2022-08-22T14:31:27.228Z,7.07
2022-08-22T14:34:15.837Z,5.53
2022-08-22T14:37:28.856Z,6.43
2022-08-22T14:40:30.578Z,7.40
2022-08-22T14:43:24.854Z,6.53
2022-08-22T14:46:19.493Z,7.05
2022-08-22T14:49:25.382Z,7.65
2022-08-22T14:52:25.276Z,6.70
2022-08-22T14:55:26.351Z,9.32
2022-08-22T14:58:19.060Z,4.43
2022-08-22T15:01:17.099Z,7.32
2022-08-22T15:04:08.764Z,4.00
2022-08-22T15:06:58.634Z,6.53
2022-08-22T15:09:51.854Z,6.32
2022-08-22T15:12:45.097Z,5.78
2022-08-22T15:15:52.901Z,7.75
2022-08-22T15:18:41.187Z,8.95
2022-08-22T15:21:37.239Z,5.00
2022-08-22T15:24:28.519Z,10.75
2022-08-22T15:27:18.850Z,3.00
2022-08-22T15:30:16.585Z,3.03
2022-08-22T15:33:20.846Z,2.22
2022-08-22T15:36:21.102Z,3.92
2022-08-22T15:39:33.924Z,3.60
2022-08-22T15:42:26.911Z,4.25
2022-08-22T15:45:39.500Z,1.85
2022-08-22T15:48:39.126Z,2.70
2022-08-22T15:51:41.908Z,5.80
2022-08-22T15:54:46.948Z,2.30
2022-08-22T15:57:48.334Z,4.53
2022-08-22T16:00:45.500Z,5.53
2022-08-22T16:03:34.286Z,5.00
2022-08-22T16:06:39.725Z,4.60
2022-08-22T16:09:46.198Z,6.22
2022-08-22T16:12:40.527Z,5.10
2022-08-22T16:15:55.927Z,4.65
2022-08-22T16:18:44.723Z,5.43
2022-08-22T16:21:29.862Z,1.45
2022-08-22T16:24:18.271Z,6.25
2022-08-22T16:27:22.589Z,4.35
2022-08-22T16:30:11.794Z,3.60
2022-08-22T16:32:57.503Z,4.10
2022-08-22T16:36:20.744Z,3.78
2022-08-22T16:39:35.906Z,2.40
2022-08-22T16:42:35.261Z,4.05
2022-08-22T16:45:36.536Z,2.25
2022-08-22T16:48:33.838Z,4.53
2022-08-22T16:51:21.179Z,4.18
2022-08-22T16:54:12.535Z,5.00
2022-08-22T16:57:15.804Z,3.75
2022-08-22T17:00:41.910Z,7.00
2022-08-22T17:03:42.326Z,5.97
2022-08-22T17:07:05.533Z,4.70
2022-08-22T17:10:29.726Z,4.05
2022-08-22T17:13:34.482Z,6.32
2022-08-22T17:16:35.825Z,7.90
2022-08-22T17:19:36.468Z,5.03
2022-08-22T17:22:29.125Z,4.47
2022-08-22T17:28:35.031Z,7.93
2022-08-22T17:31:30.468Z,5.82
2022-08-22T17:34:46.882Z,3.88
2022-08-22T17:37:48.813Z,3.55
2022-08-22T17:40:37.217Z,3.85
2022-08-22T17:43:49.113Z,6.30
2022-08-22T17:46:52.932Z,6.70
2022-08-22T17:49:41.286Z,3.83
2022-08-22T17:52:48.009Z,3.03
2022-08-22T17:56:12.261Z,5.45
2022-08-22T17:59:03.792Z,5.68
2022-08-22T18:01:51.272Z,2.25
2022-08-22T18:04:40.943Z,5.45
2022-08-22T18:08:08.302Z,4.72
2022-08-22T18:10:54.289Z,3.60
2022-08-22T18:13:49.662Z,4.95
2022-08-22T18:16:50.835Z,1.20
2022-08-22T18:19:51.097Z,4.32
2022-08-22T18:22:51.119Z,3.78
2022-08-22T18:25:44.826Z,3.90
2022-08-22T18:28:48.281Z,3.58
2022-08-22T18:31:45.702Z,4.40
2022-08-22T18:34:40.941Z,1.48
2022-08-22T18:37:35.702Z,2.33
2022-08-22T18:40:29.275Z,5.63
2022-08-22T18:43:15.102Z,4.63
2022-08-22T18:46:04.351Z,4.53
2022-08-22T18:49:14.107Z,5.65
2022-08-22T18:52:26.757Z,3.70
2022-08-22T18:55:38.244Z,5.60
2022-08-22T18:59:05.388Z,4.35
2022-08-22T19:02:08.148Z,7.53
2022-08-22T19:05:18.138Z,2.65
2022-08-22T19:08:57.441Z,2.38
2022-08-22T19:12:02.731Z,4.47
2022-08-22T19:15:22.134Z,4.88
2022-08-22T19:18:16.500Z,4.90
2022-08-22T19:21:42.367Z,4.15
2022-08-22T19:24:27.786Z,4.13
2022-08-22T19:27:19.474Z,5.07
2022-08-22T19:30:28.328Z,2.92
2022-08-22T19:33:29.262Z,3.70
2022-08-22T19:36:32.766Z,2.47
2022-08-22T19:39:39.931Z,2.75
2022-08-22T19:42:27.301Z,3.40
2022-08-22T19:45:29.009Z,1.48
2022-08-22T19:48:15.553Z,3.80
2022-08-22T19:51:09.875Z,1.48
2022-08-22T19:54:01.612Z,0.95
2022-08-22T19:57:10.022Z,1.77
2022-08-22T20:00:15.623Z,1.60
2022-08-22T20:03:19.606Z,1.65
2022-08-22T20:06:44.470Z,2.35
2022-08-22T20:09:57.419Z,2.90
2022-08-22T20:12:57.944Z,1.42
2022-08-22T20:16:16.347Z,2.85
2022-08-22T20:19:08.217Z,3.50
2022-08-22T20:22:00.511Z,2.28
2022-08-22T20:24:55.644Z,2.28
2022-08-22T20:28:08.502Z,1.85
2022-08-22T20:30:59.422Z,4.30
2022-08-22T20:33:46.712Z,2.10
2022-08-22T20:36:33.448Z,3.30
2022-08-22T20:39:22.792Z,3.80
2022-08-22T20:42:14.907Z,5.55
2022-08-22T20:45:12.009Z,3.53
2022-08-22T20:47:58.300Z,4.95
2022-08-22T20:50:44.036Z,4.32
2022-08-22T20:53:29.559Z,3.92
2022-08-22T20:56:15.097Z,5.00
2022-08-22T20:59:01.539Z,4.13
2022-08-22T21:01:51.403Z,4.68
2022-08-22T21:04:45.321Z,4.32
2022-08-22T21:07:34.343Z,3.95
2022-08-22T21:10:45.724Z,3.38
2022-08-22T21:13:37.605Z,1.67
2022-08-22T21:16:33.014Z,1.65
2022-08-22T21:19:29.792Z,2.50
2022-08-22T21:22:30.568Z,3.13
2022-08-22T21:25:16.325Z,3.78
2022-08-22T21:28:02.260Z,3.13
2022-08-22T21:30:47.851Z,2.13
2022-08-22T21:33:33.614Z,3.95
2022-08-22T21:36:28.607Z,1.80
2022-08-22T21:39:27.646Z,3.63
2022-08-22T21:42:23.878Z,2.15
2022-08-22T21:45:28.873Z,2.00
2022-08-22T21:48:40.579Z,1.35
2022-08-22T21:51:36.562Z,3.30
2022-08-22T21:54:24.893Z,4.13
2022-08-22T21:57:10.314Z,1.83
2022-08-22T21:59:59.044Z,1.83
2022-08-22T22:02:45.427Z,1.75
2022-08-22T22:05:31.119Z,2.20
2022-08-22T22:08:17.457Z,1.30
2022-08-22T22:11:08.666Z,3.30
2022-08-22T22:13:54.102Z,1.58
2022-08-22T22:16:39.603Z,1.98
2022-08-22T22:19:25.191Z,2.45
2022-08-22T22:22:10.754Z,1.85
2022-08-22T22:24:55.948Z,1.42
2022-08-22T22:27:41.470Z,1.88
2022-08-22T22:30:26.980Z,4.32
2022-08-22T22:33:12.780Z,5.25
2022-08-22T22:36:03.733Z,2.08
2022-08-22T22:38:49.395Z,4.32
2022-08-22T22:41:37.666Z,2.75
2022-08-22T22:44:25.230Z,5.15
2022-08-22T22:47:10.594Z,5.35
2022-08-22T22:49:56.196Z,4.95
2022-08-22T22:52:41.708Z,4.50
2022-08-22T22:55:27.109Z,4.00
2022-08-22T22:58:13.549Z,3.67
2022-08-22T23:01:08.161Z,4.50
2022-08-22T23:03:56.827Z,5.95
2022-08-22T23:06:42.290Z,4.82
2022-08-22T23:09:38.067Z,4.78
2022-08-22T23:12:29.934Z,5.55
2022-08-22T23:15:15.656Z,3.60
2022-08-22T23:18:01.441Z,2.88
2022-08-22T23:20:47.206Z,3.35
2022-08-22T23:23:32.839Z,2.42
2022-08-22T23:26:18.822Z,2.40
2022-08-22T23:29:04.914Z,2.78
2022-08-22T23:31:55.528Z,6.50
2022-08-22T23:34:45.912Z,3.58
2022-08-22T23:37:31.533Z,2.95
2022-08-22T23:40:17.089Z,2.58
2022-08-22T23:43:02.490Z,5.60
2022-08-22T23:45:48.209Z,4.57
2022-08-22T23:48:33.667Z,2.58
2022-08-22T23:51:22.964Z,3.30
2022-08-22T23:54:09.083Z,2.83
2022-08-22T23:56:57.982Z,3.20
2022-08-22T23:59:47.845Z,2.40
